Time;durP1;ratioP1;P1;durP2;ratioP2;P2;SDS_P1;SDS_P2;PMS_P1;PMS_P2;Temp;Humidity;BMP_temperature;BMP_pressure;BME280_temperature;BME280_humidity;BME280_pressure;Samples;Min_cycle;Max_cycle;Signal;HPM_P1;HPM_P2
2022/06/10 00:00:40;;;;;;;3.55;0.60;;;13.00;99.90;;;;;;5073774;28;20044;-71
2022/06/10 00:03:10;;;;;;;2.08;1.00;;;13.10;99.90;;;;;;5072149;28;20393;-72
2022/06/10 00:05:37;;;;;;;1.85;0.73;;;13.10;99.90;;;;;;5073575;28;20111;-71
2022/06/10 00:08:08;;;;;;;3.58;1.33;;;13.10;99.90;;;;;;5072209;28;20404;-72
2022/06/10 00:10:35;;;;;;;1.55;0.63;;;13.20;99.90;;;;;;5072214;28;20029;-71
2022/06/10 00:13:03;;;;;;;4.03;1.25;;;13.30;99.90;;;;;;5073424;28;20032;-71
2022/06/10 00:15:31;;;;;;;2.05;1.23;;;13.40;99.90;;;;;;5071913;28;20210;-71
2022/06/10 00:17:59;;;;;;;2.03;0.80;;;13.50;99.90;;;;;;5073574;28;20012;-71
2022/06/10 00:20:29;;;;;;;3.67;1.08;;;13.60;99.90;;;;;;5071983;28;20028;-71
2022/06/10 00:22:56;;;;;;;1.63;0.70;;;13.70;99.90;;;;;;5073943;28;20059;-71
2022/06/10 00:25:24;;;;;;;2.47;0.73;;;13.70;99.90;;;;;;5073236;28;20021;-71
2022/06/10 00:27:52;;;;;;;3.45;0.85;;;13.70;99.90;;;;;;5072176;28;20048;-71
2022/06/10 00:30:23;;;;;;;1.67;0.47;;;13.80;99.90;;;;;;5073126;28;20028;-72
2022/06/10 00:32:51;;;;;;;1.60;0.68;;;13.90;99.90;;;;;;5071768;28;20054;-71
2022/06/10 00:35:18;;;;;;;1.40;0.50;;;13.90;99.90;;;;;;5071518;28;20040;-71
2022/06/10 00:37:49;;;;;;;1.80;0.60;;;13.90;99.90;;;;;;5073205;28;20121;-71
2022/06/10 00:40:24;;;;;;;1.75;0.88;;;14.00;99.90;;;;;;5072863;28;20055;-71
2022/06/10 00:42:54;;;;;;;2.53;0.70;;;14.20;99.90;;;;;;5073024;28;20043;-71
2022/06/10 00:45:51;;;;;;;2.85;0.70;;;14.20;99.90;;;;;;5072874;28;20024;-71
2022/06/10 00:48:36;;;;;;;3.50;0.95;;;14.30;99.90;;;;;;5073064;28;20187;-71
2022/06/10 00:51:12;;;;;;;3.42;0.50;;;14.30;99.90;;;;;;5073441;28;20024;-71
2022/06/10 00:53:40;;;;;;;2.00;0.77;;;14.40;99.90;;;;;;5073005;28;20024;-71
2022/06/10 00:56:14;;;;;;;2.90;0.70;;;14.50;99.90;;;;;;5072691;28;20431;-71
2022/06/10 00:58:51;;;;;;;1.00;0.40;;;14.50;99.90;;;;;;5071598;28;20389;-71
2022/06/10 01:01:19;;;;;;;2.25;0.50;;;14.50;99.90;;;;;;5073059;28;20023;-72
2022/06/10 01:03:47;;;;;;;3.00;0.60;;;14.60;99.90;;;;;;5071493;28;20021;-70
2022/06/10 01:06:15;;;;;;;2.00;0.40;;;14.60;99.90;;;;;;5072606;28;20025;-72
2022/06/10 01:08:43;;;;;;;2.40;0.73;;;14.70;99.90;;;;;;5072830;28;20368;-72
2022/06/10 01:11:46;;;;;;;1.65;0.50;;;14.80;99.90;;;;;;5072600;28;20020;-72
2022/06/10 01:14:28;;;;;;;2.80;0.85;;;14.80;99.90;;;;;;5072672;28;20043;-72
2022/06/10 01:17:22;;;;;;;2.03;0.50;;;14.90;99.90;;;;;;5072721;28;20032;-72
2022/06/10 01:20:13;;;;;;;2.88;0.55;;;15.00;99.90;;;;;;5071370;28;20102;-71
2022/06/10 01:22:45;;;;;;;;;;;15.00;99.90;;;;;;5073459;28;20013;-71
2022/06/10 01:25:18;;;;;;;3.60;0.60;;;15.10;99.90;;;;;;5072483;28;19958;-71
2022/06/10 01:28:19;;;;;;;3.55;0.55;;;15.20;99.90;;;;;;5072576;28;20036;-71
2022/06/10 01:30:46;;;;;;;6.80;1.00;;;15.10;99.90;;;;;;5071104;28;20028;-71
2022/06/10 01:33:40;;;;;;;6.50;1.08;;;15.20;99.90;;;;;;5072281;28;20083;-72
2022/06/10 01:36:13;;;;;;;1.80;0.30;;;15.40;99.90;;;;;;5072423;28;20028;-71
2022/06/10 01:38:46;;;;;;;5.35;0.70;;;15.40;99.90;;;;;;5072672;28;20025;-72
2022/06/10 01:41:38;;;;;;;4.82;1.20;;;15.50;99.90;;;;;;5071009;28;20024;-72
2022/06/10 01:44:26;;;;;;;1.20;0.30;;;15.50;99.90;;;;;;5072354;28;20099;-72
2022/06/10 01:47:05;;;;;;;2.70;0.65;;;15.60;99.90;;;;;;5072620;28;20024;-71
2022/06/10 01:49:43;;;;;;;1.27;0.40;;;15.70;99.90;;;;;;5072317;28;20032;-71
2022/06/10 01:52:14;;;;;;;0.77;0.40;;;15.70;99.90;;;;;;5072302;28;20412;-72
2022/06/10 01:55:13;;;;;;;0.85;0.45;;;15.80;99.90;;;;;;5070962;28;20040;-71
2022/06/10 01:58:00;;;;;;;1.27;0.52;;;15.90;99.90;;;;;;5072278;28;20023;-71
2022/06/10 02:00:32;;;;;;;2.17;0.40;;;15.90;99.90;;;;;;5072277;28;20026;-71
2022/06/10 02:03:05;;;;;;;0.75;0.10;;;16.10;99.90;;;;;;5072107;28;20143;-71
2022/06/10 02:05:39;;;;;;;1.13;0.30;;;16.10;99.90;;;;;;5072107;28;20082;-72
2022/06/10 02:08:21;;;;;;;1.48;0.30;;;16.20;99.90;;;;;;5072056;28;20052;-71
2022/06/10 02:11:09;;;;;;;1.45;0.50;;;16.30;99.90;;;;;;5070824;28;20025;-72
2022/06/10 02:13:58;;;;;;;1.80;0.60;;;16.60;99.90;;;;;;5070682;28;20036;-71
2022/06/10 02:16:36;;;;;;;0.70;0.32;;;16.50;99.90;;;;;;5072005;28;20484;-71
2022/06/10 02:19:07;;;;;;;1.27;0.30;;;16.50;99.90;;;;;;5071901;28;20016;-71
2022/06/10 02:22:00;;;;;;;1.45;0.60;;;16.50;99.90;;;;;;5073117;28;20062;-71
2022/06/10 02:24:43;;;;;;;0.57;0.28;;;16.40;99.90;;;;;;5075675;28;20066;-71
2022/06/10 02:27:20;;;;;;;0.73;0.25;;;16.50;99.90;;;;;;5075868;28;20025;-71
2022/06/10 02:30:07;;;;;;;0.57;0.25;;;16.40;99.90;;;;;;5075486;28;20070;-70
2022/06/10 02:32:36;;;;;;;0.50;0.20;;;16.40;99.90;;;;;;5075351;28;20044;-71
2022/06/10 02:35:06;;;;;;;2.35;0.40;;;16.60;99.90;;;;;;5075376;28;20020;-71
2022/06/10 02:37:48;;;;;;;0.95;0.30;;;16.70;99.90;;;;;;5075279;28;20055;-71
2022/06/10 02:40:19;;;;;;;1.77;0.30;;;16.70;99.90;;;;;;5075594;28;20045;-71
2022/06/10 02:42:46;;;;;;;1.10;0.47;;;16.70;99.90;;;;;;5073880;28;20051;-70
2022/06/10 02:45:37;;;;;;;1.05;0.10;;;16.80;99.90;;;;;;5075315;28;20543;-71
2022/06/10 02:48:30;;;;;;;0.32;0.20;;;16.80;99.90;;;;;;5073771;28;20016;-71
2022/06/10 02:50:57;;;;;;;1.02;0.10;;;16.70;99.90;;;;;;5068662;28;20397;-70
2022/06/10 02:53:25;;;;;;;0.40;0.20;;;16.70;99.90;;;;;;5074990;28;20027;-71
2022/06/10 02:55:52;;;;;;;2.28;0.30;;;16.90;99.90;;;;;;5075192;28;20044;-71
2022/06/10 03:01:22;;;;;;;1.90;0.38;;;17.10;99.90;;;;;;5075069;28;20549;-70
2022/06/10 03:04:20;;;;;;;0.63;0.10;;;17.10;99.70;;;;;;5074878;28;20020;-71
2022/06/10 03:07:11;;;;;;;1.25;0.30;;;17.10;99.90;;;;;;5074921;28;20473;-71
2022/06/10 03:10:12;;;;;;;0.73;0.30;;;17.10;99.90;;;;;;5073479;28;20028;-70
2022/06/10 03:12:42;;;;;;;0.88;0.32;;;17.30;99.90;;;;;;5074838;28;20063;-69
2022/06/10 03:15:33;;;;;;;0.55;0.20;;;17.30;99.90;;;;;;5074471;28;20032;-70
2022/06/10 03:18:21;;;;;;;1.33;0.22;;;17.30;99.90;;;;;;5074965;28;20040;-70
2022/06/10 03:21:06;;;;;;;1.00;0.40;;;17.10;99.80;;;;;;5074898;28;20031;-71
2022/06/10 03:23:47;;;;;;;1.70;0.40;;;17.20;99.90;;;;;;5074809;28;20021;-71
2022/06/10 03:26:27;;;;;;;0.90;0.32;;;17.30;99.70;;;;;;5073388;28;20078;-70
2022/06/10 03:29:15;;;;;;;1.27;0.25;;;17.30;99.90;;;;;;5074501;28;20338;-70
2022/06/10 03:31:51;;;;;;;1.90;0.30;;;17.20;99.90;;;;;;5073046;28;20045;-70
2022/06/10 03:34:27;;;;;;;0.77;0.20;;;17.20;99.50;;;;;;5073554;28;20043;-70
2022/06/10 03:36:59;;;;;;;0.50;0.30;;;17.20;99.80;;;;;;5073298;28;20035;-72
2022/06/10 03:39:27;;;;;;;0.73;0.40;;;17.30;99.90;;;;;;5072768;28;20059;-71
2022/06/10 03:42:16;;;;;;;0.30;0.20;;;17.30;99.90;;;;;;5074237;28;20021;-70
2022/06/10 03:44:45;;;;;;;0.28;0.20;;;17.20;99.40;;;;;;5074173;28;20017;-71
2022/06/10 03:47:20;;;;;;;0.40;0.10;;;17.10;99.50;;;;;;5072822;28;20083;-71
2022/06/10 03:50:02;;;;;;;0.30;0.20;;;17.00;98.80;;;;;;5074404;28;20423;-70
2022/06/10 03:52:35;;;;;;;0.40;0.28;;;16.90;99.40;;;;;;5072780;28;20035;-71
2022/06/10 03:55:02;;;;;;;0.75;0.13;;;17.00;99.40;;;;;;5073830;28;20035;-70
2022/06/10 03:57:30;;;;;;;0.90;0.30;;;17.00;99.50;;;;;;5073968;28;20021;-70
2022/06/10 03:59:57;;;;;;;2.15;0.20;;;17.10;99.50;;;;;;5073831;28;20021;-71
2022/06/10 04:02:24;;;;;;;0.20;0.15;;;17.10;99.30;;;;;;5073847;28;20019;-70
2022/06/10 04:04:52;;;;;;;1.50;0.20;;;17.10;99.90;;;;;;5073927;28;20085;-71
2022/06/10 04:07:20;;;;;;;2.03;0.20;;;17.10;99.80;;;;;;5073711;28;20020;-70
2022/06/10 04:09:48;;;;;;;1.48;0.20;;;17.00;99.60;;;;;;5073595;28;20028;-70
2022/06/10 04:12:17;;;;;;;0.20;0.10;;;16.90;99.40;;;;;;5073709;28;20024;-70
2022/06/10 04:14:44;;;;;;;0.55;0.20;;;17.00;99.50;;;;;;5073239;28;20077;-70
2022/06/10 04:17:12;;;;;;;1.45;0.20;;;17.00;99.60;;;;;;5072141;28;20490;-71
2022/06/10 04:19:40;;;;;;;1.85;0.45;;;17.00;99.50;;;;;;5073388;28;20025;-70
2022/06/10 04:22:07;;;;;;;3.40;0.93;;;17.10;99.90;;;;;;5073473;28;20389;-70
2022/06/10 04:24:34;;;;;;;0.73;0.17;;;17.10;99.70;;;;;;5072088;28;20017;-69
2022/06/10 04:27:02;;;;;;;0.70;0.15;;;17.00;99.50;;;;;;5071890;28;20021;-70
2022/06/10 04:29:30;;;;;;;0.68;0.52;;;17.00;99.20;;;;;;5073264;28;20472;-69
2022/06/10 04:31:57;;;;;;;0.35;0.30;;;16.80;99.80;;;;;;5071503;28;20044;-69
2022/06/10 04:34:24;;;;;;;0.28;0.10;;;16.80;99.70;;;;;;5073084;28;20065;-70
2022/06/10 04:36:52;;;;;;;0.55;0.20;;;16.80;99.40;;;;;;5073097;28;20481;-71
2022/06/10 04:39:19;;;;;;;0.80;0.20;;;16.70;99.10;;;;;;5071792;28;20020;-70
2022/06/10 04:41:46;;;;;;;0.88;0.20;;;16.70;99.50;;;;;;5072930;28;20025;-71
2022/06/10 04:44:14;;;;;;;0.90;0.20;;;16.70;99.90;;;;;;5071734;28;20043;-71
2022/06/10 04:46:43;;;;;;;1.10;0.10;;;16.70;99.30;;;;;;5072988;28;20025;-71
2022/06/10 04:49:11;;;;;;;1.27;0.30;;;16.60;99.10;;;;;;5071717;28;20033;-71
2022/06/10 04:51:38;;;;;;;0.57;0.20;;;16.60;99.30;;;;;;5071696;28;20036;-71
2022/06/10 04:54:07;;;;;;;2.08;0.10;;;16.60;99.40;;;;;;5073186;28;20021;-71
2022/06/10 04:56:37;;;;;;;0.68;0.10;;;16.50;99.90;;;;;;5071561;28;20028;-72
2022/06/10 04:59:04;;;;;;;0.88;0.10;;;16.40;99.60;;;;;;5071778;28;20052;-72
2022/06/10 05:01:32;;;;;;;0.65;0.22;;;16.40;99.50;;;;;;5072793;28;20251;-71
2022/06/10 05:03:59;;;;;;;1.65;0.25;;;16.30;99.70;;;;;;5073238;28;20028;-71
2022/06/10 05:06:26;;;;;;;2.03;0.30;;;16.30;99.40;;;;;;5072713;28;20036;-71
2022/06/10 05:08:54;;;;;;;0.75;0.30;;;16.30;99.90;;;;;;5072819;28;20027;-71
2022/06/10 05:11:21;;;;;;;3.38;0.32;;;16.30;99.90;;;;;;5071448;28;20021;-71
2022/06/10 05:13:48;;;;;;;0.65;0.45;;;16.30;99.90;;;;;;5072726;28;20024;-71
2022/06/10 05:16:16;;;;;;;0.75;0.40;;;16.30;99.90;;;;;;5072631;28;20027;-71
2022/06/10 05:18:43;;;;;;;1.20;0.20;;;16.30;99.90;;;;;;5072711;28;20150;-71
2022/06/10 05:21:11;;;;;;;2.10;0.77;;;16.20;99.90;;;;;;5071334;28;20020;-71
2022/06/10 05:23:38;;;;;;;1.52;0.50;;;16.20;99.90;;;;;;5072532;28;20025;-71
2022/06/10 05:26:06;;;;;;;1.15;0.30;;;16.10;99.90;;;;;;5072670;28;20111;-71
2022/06/10 05:28:33;;;;;;;1.65;0.40;;;16.10;99.90;;;;;;5071179;28;20481;-71
2022/06/10 05:31:00;;;;;;;1.77;0.22;;;16.00;99.90;;;;;;5071316;28;20024;-71
2022/06/10 05:34:44;;;;;;;3.55;0.60;;;15.90;99.70;;;;;;5072416;28;20500;-71
2022/06/10 05:36:15;;;;;;;1.98;0.60;;;15.80;99.90;;;;;;5072169;28;20039;-70
2022/06/10 05:38:42;;;;;;;1.40;0.30;;;15.80;99.90;;;;;;5072411;28;20503;-70
2022/06/10 05:43:55;;;;;;;1.17;0.47;;;15.80;99.90;;;;;;5072598;28;20035;-69
2022/06/10 05:46:22;;;;;;;1.42;0.47;;;15.70;99.90;;;;;;5072869;28;20024;-71
2022/06/10 05:48:50;;;;;;;1.17;0.50;;;15.70;99.90;;;;;;5072358;28;20024;-70
2022/06/10 05:51:18;;;;;;;1.08;0.45;;;15.60;99.90;;;;;;5072459;28;20024;-72
2022/06/10 05:53:46;;;;;;;2.40;0.30;;;15.50;99.90;;;;;;5072633;28;20024;-71
2022/06/10 05:56:13;;;;;;;2.05;0.30;;;15.40;99.90;;;;;;5072791;28;20020;-70
2022/06/10 05:58:40;;;;;;;1.13;0.30;;;15.40;99.90;;;;;;5074873;28;20068;-70
2022/06/10 06:01:08;;;;;;;3.60;0.70;;;15.30;99.90;;;;;;5076193;28;20020;-69
2022/06/10 06:03:35;;;;;;;1.27;0.30;;;15.30;99.90;;;;;;5074701;28;20024;-71
2022/06/10 06:06:02;;;;;;;1.75;0.55;;;15.20;99.90;;;;;;5074773;28;20032;-71
2022/06/10 06:08:30;;;;;;;2.65;0.30;;;15.10;99.90;;;;;;5075952;28;20024;-71
2022/06/10 06:10:57;;;;;;;1.02;0.38;;;15.10;99.90;;;;;;5075942;28;20048;-71
2022/06/10 06:13:25;;;;;;;2.92;0.40;;;15.00;99.90;;;;;;5074448;28;20028;-71
2022/06/10 06:15:52;;;;;;;2.95;0.30;;;15.00;99.90;;;;;;5075796;28;20551;-70
2022/06/10 06:18:20;;;;;;;1.92;0.30;;;15.00;99.90;;;;;;5075936;28;20016;-71
2022/06/10 06:20:47;;;;;;;1.50;0.40;;;14.90;99.90;;;;;;5074436;28;20047;-71
2022/06/10 06:23:14;;;;;;;1.48;0.65;;;14.80;99.90;;;;;;5075670;28;20579;-71
2022/06/10 06:25:44;;;;;;;1.40;0.35;;;14.70;99.90;;;;;;5075728;28;20471;-71
2022/06/10 06:28:11;;;;;;;0.82;0.30;;;14.70;99.90;;;;;;5075676;28;20024;-70
2022/06/10 06:30:39;;;;;;;1.40;0.20;;;14.70;99.90;;;;;;5075586;28;20031;-71
2022/06/10 06:33:08;;;;;;;0.90;0.20;;;14.60;99.90;;;;;;5075269;28;20041;-70
2022/06/10 06:35:38;;;;;;;1.55;0.45;;;14.60;99.90;;;;;;5075337;28;20031;-70
2022/06/10 06:38:06;;;;;;;1.23;0.50;;;14.50;99.90;;;;;;5074077;28;20052;-70
2022/06/10 06:40:35;;;;;;;1.42;0.50;;;14.50;99.90;;;;;;5075365;28;20259;-70
2022/06/10 06:43:02;;;;;;;2.13;0.40;;;14.40;99.90;;;;;;5074068;28;20507;-70
2022/06/10 06:45:30;;;;;;;3.08;0.68;;;14.30;99.90;;;;;;5073923;28;20029;-71
2022/06/10 06:47:57;;;;;;;2.30;0.57;;;14.30;99.90;;;;;;5075303;28;20021;-71
2022/06/10 06:50:28;;;;;;;1.30;0.40;;;14.20;99.90;;;;;;5075151;28;20074;-72
2022/06/10 06:52:55;;;;;;;2.35;0.75;;;14.20;99.90;;;;;;5075821;28;20078;-72
2022/06/10 06:55:22;;;;;;;1.65;0.50;;;14.20;99.90;;;;;;5075090;28;20064;-72
2022/06/10 06:57:51;;;;;;;0.50;0.30;;;14.00;99.90;;;;;;5075049;28;20049;-72
2022/06/10 07:00:20;;;;;;;1.38;0.55;;;14.10;99.90;;;;;;5074860;28;20104;-72
2022/06/10 07:02:47;;;;;;;0.43;0.30;;;14.00;99.90;;;;;;5074662;28;20020;-72
2022/06/10 07:05:14;;;;;;;0.45;0.15;;;14.00;99.90;;;;;;5074613;28;20025;-72
2022/06/10 07:07:44;;;;;;;1.73;0.40;;;13.90;99.90;;;;;;5072575;28;20029;-73
2022/06/10 07:10:14;;;;;;;0.50;0.30;;;13.80;99.90;;;;;;5073624;28;20027;-73
2022/06/10 07:12:41;;;;;;;1.80;0.40;;;13.80;99.90;;;;;;5075262;28;20486;-72
2022/06/10 07:15:09;;;;;;;1.17;0.30;;;13.70;99.90;;;;;;5074683;28;20024;-73
2022/06/10 07:17:36;;;;;;;1.15;0.40;;;13.70;99.90;;;;;;5074835;28;20100;-73
2022/06/10 07:20:06;;;;;;;1.42;0.40;;;13.60;99.90;;;;;;5074760;28;20020;-73
2022/06/10 07:22:34;;;;;;;0.47;0.30;;;13.50;99.90;;;;;;5073334;28;20024;-72
2022/06/10 07:25:01;;;;;;;0.50;0.30;;;13.40;99.90;;;;;;5073438;28;20508;-73
2022/06/10 07:27:29;;;;;;;0.70;0.30;;;13.30;99.90;;;;;;5074546;28;20472;-74
2022/06/10 07:29:56;;;;;;;0.63;0.30;;;13.20;99.90;;;;;;5073533;28;20023;-74
2022/06/10 07:32:24;;;;;;;1.05;0.30;;;13.30;99.90;;;;;;5074313;28;20048;-75
2022/06/10 07:34:51;;;;;;;1.20;0.30;;;13.10;99.90;;;;;;5073149;28;20020;-75
2022/06/10 07:37:19;;;;;;;0.82;0.47;;;13.00;99.90;;;;;;5074361;28;20020;-76
2022/06/10 07:39:46;;;;;;;1.77;0.40;;;12.90;99.90;;;;;;5074502;28;20086;-76
2022/06/10 07:42:13;;;;;;;1.40;0.60;;;12.80;99.90;;;;;;5074946;28;20025;-75
2022/06/10 07:44:41;;;;;;;1.00;0.30;;;12.90;99.90;;;;;;5073281;28;20054;-75
2022/06/10 07:47:13;;;;;;;1.38;0.47;;;12.80;99.90;;;;;;5073028;28;20028;-75
2022/06/10 07:49:40;;;;;;;0.60;0.40;;;12.80;99.90;;;;;;5072933;28;20020;-75
2022/06/10 07:52:09;;;;;;;2.72;0.43;;;12.90;99.90;;;;;;5073999;28;20016;-74
2022/06/10 07:54:37;;;;;;;0.77;0.47;;;12.80;99.90;;;;;;5074094;28;20088;-73
2022/06/10 07:57:06;;;;;;;0.98;0.50;;;12.90;99.90;;;;;;5072492;28;20028;-74
2022/06/10 07:59:34;;;;;;;1.45;0.50;;;12.90;99.90;;;;;;5074188;28;20082;-74
2022/06/10 08:02:01;;;;;;;0.80;0.30;;;13.00;99.90;;;;;;5073950;28;20024;-74
2022/06/10 08:04:29;;;;;;;2.92;0.40;;;13.10;99.90;;;;;;5074007;28;20361;-74
2022/06/10 08:06:56;;;;;;;1.35;0.40;;;13.00;99.90;;;;;;5072446;28;20111;-73
2022/06/10 08:09:23;;;;;;;0.30;0.30;;;13.00;99.90;;;;;;5072497;28;20119;-74
2022/06/10 08:11:53;;;;;;;0.63;0.20;;;13.00;99.90;;;;;;5073746;28;20020;-74
2022/06/10 08:14:21;;;;;;;0.95;0.28;;;13.10;99.90;;;;;;5073669;28;20519;-74
2022/06/10 08:16:49;;;;;;;1.60;0.30;;;13.10;99.90;;;;;;5073412;28;20476;-73
2022/06/10 08:19:16;;;;;;;1.35;0.38;;;13.00;99.90;;;;;;5073550;28;20093;-74
2022/06/10 08:24:28;;;;;;;0.55;0.30;;;13.00;99.90;;;;;;5073957;28;20043;-74
2022/06/10 08:26:56;;;;;;;0.55;0.32;;;12.90;99.90;;;;;;5072269;28;20063;-76
2022/06/10 08:29:23;;;;;;;0.50;0.30;;;12.90;99.90;;;;;;5072104;28;20024;-74
2022/06/10 08:31:50;;;;;;;1.13;0.30;;;13.00;99.90;;;;;;5073522;28;20037;-74
2022/06/10 08:34:18;;;;;;;1.83;0.47;;;12.90;99.90;;;;;;5073940;28;20028;-74
2022/06/10 08:36:45;;;;;;;0.77;0.28;;;12.90;99.90;;;;;;5073334;28;20419;-74
2022/06/10 08:39:12;;;;;;;0.47;0.20;;;12.90;99.90;;;;;;5073410;28;20412;-75
2022/06/10 08:41:46;;;;;;;0.30;0.20;;;12.80;99.90;;;;;;5072092;28;20063;-74
2022/06/10 08:44:33;;;;;;;0.55;0.30;;;12.80;99.90;;;;;;5073379;28;20430;-74
2022/06/10 08:47:22;;;;;;;0.80;0.47;;;12.80;99.90;;;;;;5073394;28;20457;-74
2022/06/10 08:50:06;;;;;;;0.20;0.20;;;12.80;99.90;;;;;;5071896;28;20423;-72
2022/06/10 08:53:12;;;;;;;0.80;0.30;;;12.70;99.90;;;;;;5073438;28;20039;-73
2022/06/10 08:55:55;;;;;;;0.52;0.30;;;12.70;99.90;;;;;;5071772;28;20037;-73
2022/06/10 08:58:32;;;;;;;0.75;0.30;;;12.70;99.90;;;;;;5071935;28;20104;-72
2022/06/10 09:01:05;;;;;;;0.77;0.32;;;12.60;99.90;;;;;;5073074;28;20013;-73
2022/06/10 09:03:47;;;;;;;1.02;0.30;;;12.60;99.90;;;;;;5073126;28;20021;-73
2022/06/10 09:06:22;;;;;;;0.70;0.30;;;12.60;99.90;;;;;;5073145;28;20480;-73
2022/06/10 09:08:54;;;;;;;2.25;0.47;;;12.60;99.90;;;;;;5071780;28;20494;-73
2022/06/10 09:11:40;;;;;;;0.50;0.40;;;12.50;99.90;;;;;;5072887;28;20035;-73
2022/06/10 09:14:24;;;;;;;0.30;0.20;;;12.50;99.90;;;;;;5072913;28;20385;-74
2022/06/10 09:17:19;;;;;;;0.30;0.20;;;12.40;99.90;;;;;;5072919;28;20021;-73
2022/06/10 09:20:24;;;;;;;0.55;0.20;;;12.40;99.90;;;;;;5044777;28;20508;-74
2022/06/10 09:23:09;;;;;;;0.50;0.38;;;12.40;99.90;;;;;;5072867;28;20028;-74
2022/06/10 09:25:48;;;;;;;0.75;0.30;;;12.40;99.90;;;;;;5073038;28;20108;-74
2022/06/10 09:28:17;;;;;;;1.45;0.50;;;12.30;99.90;;;;;;5071599;28;20070;-74
2022/06/10 09:30:57;;;;;;;0.55;0.38;;;12.20;99.90;;;;;;5071556;28;20020;-74
2022/06/10 12:08:45;;;;;;;1.70;0.68;;;10.60;99.90;;;;;;5073487;28;20047;-70
2022/06/10 12:11:31;;;;;;;1.13;0.40;;;10.70;99.90;;;;;;5073750;28;20040;-70
2022/06/10 12:14:08;;;;;;;0.70;0.40;;;10.80;99.90;;;;;;5072308;28;20032;-71
2022/06/10 12:16:36;;;;;;;1.13;0.70;;;10.80;99.90;;;;;;5072196;28;20024;-71
2022/06/10 12:19:12;;;;;;;2.35;0.80;;;10.80;99.90;;;;;;5072170;28;20031;-71
2022/06/10 12:21:42;;;;;;;0.65;0.40;;;10.80;99.90;;;;;;5072603;28;20020;-70
2022/06/10 12:24:20;;;;;;;1.55;0.55;;;10.70;99.90;;;;;;5072137;28;20127;-70
2022/06/10 12:27:03;;;;;;;1.50;0.50;;;10.70;99.90;;;;;;5073762;28;20535;-71
2022/06/10 12:29:52;;;;;;;1.40;0.47;;;10.80;99.90;;;;;;5073375;28;20427;-72
2022/06/10 12:32:54;;;;;;;1.17;0.40;;;10.70;99.90;;;;;;5073552;28;20537;-71
2022/06/10 12:35:36;;;;;;;0.68;0.35;;;10.80;99.90;;;;;;5073503;28;20020;-72
2022/06/10 12:38:26;;;;;;;1.08;0.40;;;10.80;99.90;;;;;;5073261;28;20091;-71
2022/06/10 12:41:19;;;;;;;0.52;0.30;;;10.70;99.90;;;;;;5071942;28;20016;-71
2022/06/10 12:43:53;;;;;;;0.55;0.50;;;10.80;99.90;;;;;;5073287;28;20029;-71
2022/06/10 12:46:32;;;;;;;0.65;0.20;;;10.90;99.90;;;;;;5071945;28;20032;-71
2022/06/10 12:49:29;;;;;;;0.40;0.32;;;10.80;99.90;;;;;;5073328;28;20048;-72
2022/06/10 12:52:13;;;;;;;1.67;0.30;;;10.80;99.90;;;;;;5067662;28;20377;-72
2022/06/10 12:54:53;;;;;;;1.27;0.30;;;10.80;99.90;;;;;;5073145;28;20020;-71
2022/06/10 12:57:49;;;;;;;0.68;0.30;;;10.80;99.90;;;;;;5071651;28;20028;-71
2022/06/10 13:00:22;;;;;;;1.75;0.55;;;10.80;99.90;;;;;;5071906;28;20039;-71
2022/06/10 13:02:57;;;;;;;1.95;0.30;;;10.80;99.90;;;;;;5073001;28;20025;-70
2022/06/10 13:05:31;;;;;;;0.50;0.30;;;10.80;99.90;;;;;;5072514;28;20028;-70
2022/06/10 13:08:00;;;;;;;0.90;0.30;;;10.80;99.90;;;;;;5072704;28;20037;-71
2022/06/10 13:10:33;;;;;;;0.80;0.70;;;10.80;99.90;;;;;;5073062;28;20063;-71
2022/06/10 13:13:23;;;;;;;2.10;0.40;;;10.90;99.90;;;;;;5072836;28;20435;-71
2022/06/10 13:15:53;;;;;;;1.27;0.38;;;10.80;99.90;;;;;;5072897;28;20388;-70
2022/06/10 13:18:35;;;;;;;1.05;0.30;;;10.90;99.90;;;;;;5071440;28;20032;-70
2022/06/10 13:21:15;;;;;;;0.73;0.30;;;10.90;99.90;;;;;;5071535;28;20549;-70
2022/06/10 13:24:20;;;;;;;1.08;0.40;;;10.90;99.90;;;;;;5071585;28;20476;-70
2022/06/10 13:26:47;;;;;;;1.48;0.50;;;10.90;99.90;;;;;;5071438;28;20064;-71
2022/06/10 13:29:21;;;;;;;1.52;0.50;;;10.90;99.90;;;;;;5072689;28;20115;-71
2022/06/10 13:31:56;;;;;;;0.45;0.30;;;10.80;99.90;;;;;;5071294;28;20070;-71
2022/06/10 13:34:38;;;;;;;0.80;0.50;;;10.80;99.90;;;;;;5072714;28;20031;-71
2022/06/10 13:37:18;;;;;;;1.52;0.55;;;10.80;99.90;;;;;;5073166;28;20040;-70
2022/06/10 13:39:48;;;;;;;1.05;0.38;;;10.80;99.90;;;;;;5071373;28;20476;-71
2022/06/10 13:42:38;;;;;;;0.47;0.30;;;10.80;99.90;;;;;;5071283;28;20043;-71
2022/06/10 13:45:20;;;;;;;0.60;0.40;;;10.80;99.90;;;;;;5072423;28;20100;-70
2022/06/10 13:48:09;;;;;;;2.25;0.60;;;10.80;99.90;;;;;;5072589;28;20052;-71
2022/06/10 13:53:08;;;;;;;1.02;0.60;;;10.70;99.90;;;;;;5072572;28;20021;-71
2022/06/10 13:55:43;;;;;;;0.95;0.40;;;10.60;99.90;;;;;;5070504;28;20033;-71
2022/06/10 13:58:16;;;;;;;0.85;0.50;;;10.50;99.90;;;;;;5071122;28;20021;-70
2022/06/10 14:00:51;;;;;;;2.88;0.60;;;10.50;99.90;;;;;;5072531;28;20070;-70
2022/06/10 14:03:32;;;;;;;0.50;0.50;;;10.40;99.90;;;;;;5072396;28;20042;-71
2022/06/10 14:06:13;;;;;;;0.60;0.40;;;10.40;99.90;;;;;;5072391;28;20025;-70
2022/06/10 14:09:06;;;;;;;1.77;0.82;;;10.30;99.90;;;;;;5072221;28;20052;-71
2022/06/10 14:12:01;;;;;;;0.60;0.40;;;10.30;99.90;;;;;;5066795;28;20175;-72
2022/06/10 14:14:29;;;;;;;0.65;0.40;;;10.30;99.90;;;;;;5072304;28;20032;-71
2022/06/10 14:17:07;;;;;;;0.57;0.30;;;10.40;99.90;;;;;;5072270;28;20106;-72
2022/06/10 14:19:58;;;;;;;0.47;0.30;;;10.40;99.90;;;;;;5075968;28;20388;-73
2022/06/10 14:22:29;;;;;;;0.73;0.40;;;10.50;99.90;;;;;;5075387;28;20036;-71
2022/06/10 14:25:14;;;;;;;;;;;10.50;99.90;;;;;;5074844;28;20024;-71
2022/06/10 14:27:52;;;;;;;0.35;0.30;;;10.60;99.90;;;;;;5075814;28;19908;-72
2022/06/10 14:30:25;;;;;;;0.43;0.20;;;10.80;99.90;;;;;;5076024;28;20021;-71
2022/06/10 14:32:59;;;;;;;0.43;0.22;;;10.80;99.90;;;;;;5074477;28;20511;-72
2022/06/10 14:35:26;;;;;;;0.50;0.40;;;10.70;99.90;;;;;;5075653;28;20380;-72
2022/06/10 14:38:16;;;;;;;0.43;0.40;;;10.70;99.90;;;;;;5075595;28;20021;-71
2022/06/10 14:41:08;;;;;;;0.47;0.30;;;10.60;99.90;;;;;;5074296;28;20476;-73
2022/06/10 14:43:58;;;;;;;0.80;0.30;;;10.70;99.90;;;;;;5074150;28;20261;-71
2022/06/10 14:46:26;;;;;;;0.40;0.40;;;10.70;99.90;;;;;;5075777;28;20028;-72
2022/06/10 14:48:57;;;;;;;0.57;0.28;;;10.70;99.90;;;;;;5074127;28;20031;-70
2022/06/10 14:51:31;;;;;;;0.38;0.20;;;10.60;99.90;;;;;;5074105;28;20427;-70
2022/06/10 14:54:07;;;;;;;0.47;0.25;;;10.60;99.90;;;;;;5074066;28;20025;-72
2022/06/10 14:56:55;;;;;;;0.45;0.30;;;10.60;99.90;;;;;;5075299;28;20028;-73
2022/06/10 14:59:30;;;;;;;0.93;0.40;;;10.50;99.90;;;;;;5075178;28;20107;-73
2022/06/10 15:02:00;;;;;;;1.13;0.30;;;10.50;99.90;;;;;;5075366;28;20396;-70
2022/06/10 15:04:28;;;;;;;0.60;0.30;;;10.50;99.90;;;;;;5075403;28;20100;-73
2022/06/10 15:07:02;;;;;;;0.70;0.30;;;10.50;99.90;;;;;;5074925;28;20500;-74
2022/06/10 15:09:39;;;;;;;0.35;0.25;;;10.50;99.90;;;;;;5075081;28;20021;-72
2022/06/10 15:12:22;;;;;;;1.10;0.40;;;10.40;99.90;;;;;;5074988;28;20381;-71
2022/06/10 15:14:50;;;;;;;0.60;0.40;;;10.40;99.90;;;;;;5073648;28;20029;-72
2022/06/10 15:17:18;;;;;;;0.85;0.40;;;10.40;99.90;;;;;;5075027;28;20103;-72
2022/06/10 15:19:46;;;;;;;0.43;0.30;;;10.40;99.90;;;;;;5075078;28;20020;-72
2022/06/10 15:22:38;;;;;;;1.13;0.40;;;10.30;99.90;;;;;;5074833;28;20024;-72
2022/06/10 15:25:28;;;;;;;1.00;0.40;;;10.20;99.90;;;;;;5070189;28;20032;-73
2022/06/10 15:27:57;;;;;;;0.80;0.30;;;10.30;99.90;;;;;;5073350;28;20032;-72
2022/06/10 15:30:27;;;;;;;0.57;0.32;;;10.40;99.90;;;;;;5073603;28;20481;-72
2022/06/10 15:32:55;;;;;;;0.20;0.20;;;10.40;99.90;;;;;;5073188;28;20086;-71
2022/06/10 15:41:11;;;;;;;1.45;0.35;;;10.40;99.90;;;;;;5075033;28;20082;-73
2022/06/10 15:43:40;;;;;;;1.85;0.40;;;10.40;99.90;;;;;;5073013;28;20548;-74
2022/06/10 15:46:19;;;;;;;0.30;0.30;;;10.40;99.90;;;;;;5074230;28;20451;-73
2022/06/10 15:48:47;;;;;;;0.32;0.20;;;10.40;99.90;;;;;;5073085;28;20388;-73
2022/06/10 15:51:41;;;;;;;0.40;0.30;;;10.40;99.90;;;;;;5074104;28;20388;-73
2022/06/10 15:54:25;;;;;;;0.85;0.40;;;10.30;99.90;;;;;;5074133;28;20024;-73
2022/06/10 15:57:07;;;;;;;0.68;0.30;;;10.30;99.90;;;;;;5074331;28;20028;-73
2022/06/10 15:59:35;;;;;;;0.85;0.40;;;10.40;99.90;;;;;;5072747;28;20446;-74
2022/06/10 16:02:03;;;;;;;0.55;0.25;;;10.40;99.90;;;;;;5072674;28;20021;-73
2022/06/10 16:04:31;;;;;;;0.32;0.20;;;10.40;99.90;;;;;;5072463;28;20020;-73
2022/06/10 16:06:58;;;;;;;1.23;0.20;;;10.40;99.90;;;;;;5073604;28;20041;-73
2022/06/10 16:09:25;;;;;;;0.98;0.30;;;10.30;99.90;;;;;;5073917;28;20104;-73
2022/06/10 16:14:41;;;;;;;0.90;0.20;;;10.30;99.90;;;;;;5073705;28;20105;-73
2022/06/10 16:17:11;;;;;;;0.80;0.40;;;10.30;99.90;;;;;;5073701;28;20027;-72
2022/06/10 16:19:38;;;;;;;0.30;0.30;;;10.20;99.90;;;;;;5073659;28;20016;-72